createdAt,value
2018-07-07T00:04:21.826Z,15.40
2018-07-07T00:06:51.452Z,15.40
2018-07-07T00:41:41.376Z,15.20
2018-07-07T00:46:40.194Z,15.20
2018-07-07T00:51:39.024Z,15.30
2018-07-07T01:01:37.782Z,15.10
2018-07-07T01:06:36.630Z,15.10
2018-07-07T01:11:40.141Z,14.90
2018-07-07T01:16:40.246Z,15.20
2018-07-07T01:21:39.662Z,15.20
2018-07-07T01:36:35.280Z,15.10
2018-07-07T01:41:34.164Z,14.90
2018-07-07T01:49:10.036Z,14.90
2018-07-07T02:01:38.920Z,14.60
2018-07-07T02:11:36.730Z,14.70
2018-07-07T02:21:34.235Z,14.70
2018-07-07T02:29:04.448Z,14.60
2018-07-07T02:51:32.288Z,14.90
2018-07-07T02:56:31.110Z,14.90
2018-07-07T03:01:29.987Z,14.90
2018-07-07T03:11:27.184Z,14.90
2018-07-07T03:16:26.127Z,15.10
2018-07-07T03:21:25.080Z,14.80
2018-07-07T03:36:20.594Z,14.70
2018-07-07T03:41:19.387Z,14.80
2018-07-07T03:48:47.523Z,14.70
2018-07-07T03:53:46.384Z,14.70
2018-07-07T03:56:16.031Z,14.70
2018-07-07T04:03:44.365Z,14.70
2018-07-07T04:16:10.798Z,14.70
2018-07-07T04:21:09.803Z,14.80
2018-07-07T04:23:39.457Z,14.90
2018-07-07T04:26:09.656Z,15.00
2018-07-07T04:33:37.969Z,15.10
2018-07-07T04:41:06.027Z,15.30
2018-07-07T04:43:35.707Z,15.30
2018-07-07T04:46:06.273Z,15.50
2018-07-07T04:51:05.388Z,15.60
2018-07-07T04:56:04.736Z,15.70
2018-07-07T04:58:34.381Z,15.60
2018-07-07T05:03:34.718Z,15.80
2018-07-07T05:13:32.490Z,16.00
2018-07-07T05:18:31.436Z,16.10
2018-07-07T05:28:35.424Z,16.30
2018-07-07T05:33:35.147Z,16.50
2018-07-07T05:36:06.212Z,16.50
2018-07-07T05:41:06.140Z,16.50
2018-07-07T05:51:03.968Z,16.50
2018-07-07T05:56:03.284Z,16.70
2018-07-07T05:58:33.520Z,16.80
2018-07-07T06:01:03.320Z,16.90
2018-07-07T06:06:02.180Z,17.00
2018-07-07T06:08:31.845Z,17.10
2018-07-07T06:16:00.934Z,17.30
2018-07-07T06:18:30.782Z,17.30
2018-07-07T06:23:30.125Z,17.30
2018-07-07T06:28:29.277Z,17.20
2018-07-07T06:33:28.323Z,17.60
2018-07-07T06:40:58.153Z,17.60
2018-07-07T06:43:28.326Z,17.60
2018-07-07T06:45:58.637Z,17.30
2018-07-07T06:50:58.721Z,17.60
2018-07-07T06:53:28.490Z,18.00
2018-07-07T06:55:58.309Z,18.30
2018-07-07T07:00:57.445Z,18.20
2018-07-07T07:18:24.222Z,18.50
2018-07-07T07:23:23.184Z,18.50
2018-07-07T07:28:23.988Z,18.80
2018-07-07T07:33:22.867Z,18.50
2018-07-07T07:43:20.467Z,18.90
2018-07-07T07:50:48.600Z,19.00
2018-07-07T07:55:47.358Z,19.40
2018-07-07T08:20:41.948Z,19.30
2018-07-07T08:28:10.014Z,19.90
2018-07-07T08:30:39.642Z,19.90
2018-07-07T08:38:12.477Z,19.40
2018-07-07T08:48:11.744Z,19.50
2018-07-07T08:58:09.386Z,20.40
2018-07-07T09:03:08.310Z,20.60
2018-07-07T09:10:36.322Z,20.70
2018-07-07T09:15:35.838Z,20.20
2018-07-07T09:18:05.579Z,20.40
2018-07-07T09:20:35.317Z,20.40
2018-07-07T09:23:04.949Z,20.50
2018-07-07T09:25:34.618Z,20.30
2018-07-07T09:28:04.234Z,20.50
2018-07-07T09:50:29.210Z,21.20
2018-07-07T09:55:28.196Z,21.70
2018-07-07T10:08:00.401Z,22.00
2018-07-07T10:10:30.234Z,22.00
2018-07-07T10:25:31.104Z,21.40
2018-07-07T11:02:52.205Z,22.60
2018-07-07T11:05:21.838Z,22.50
2018-07-07T11:22:46.870Z,22.40
2018-07-07T11:27:45.742Z,22.40
2018-07-07T11:45:10.620Z,23.60
2018-07-07T11:47:46.821Z,23.80
2018-07-07T12:02:42.447Z,23.10
2018-07-07T12:05:12.200Z,23.10
2018-07-07T12:20:07.946Z,23.60
2018-07-07T12:32:35.738Z,25.50
2018-07-07T12:54:59.107Z,23.30
2018-07-07T13:04:56.328Z,25.80
2018-07-07T13:07:25.979Z,25.80
2018-07-07T13:12:25.244Z,25.40
2018-07-07T13:14:56.281Z,25.80
2018-07-07T13:19:55.407Z,25.90
2018-07-07T13:27:23.480Z,25.40
2018-07-07T13:29:53.308Z,26.20
2018-07-07T13:34:52.162Z,27.40
2018-07-07T13:52:17.234Z,28.10
2018-07-07T13:59:45.304Z,28.80
2018-07-07T14:19:41.550Z,27.70
2018-07-07T14:22:11.250Z,28.60
2018-07-07T14:34:38.872Z,28.40
2018-07-07T14:39:55.459Z,27.60
2018-07-07T14:42:39.096Z,26.40
2018-07-07T14:47:40.468Z,24.60
2018-07-07T15:02:39.506Z,23.10
2018-07-07T15:15:07.847Z,22.70
2018-07-07T15:22:37.622Z,22.00
2018-07-07T15:25:07.620Z,22.00
2018-07-07T15:30:07.723Z,22.10
2018-07-07T15:32:37.736Z,22.10
2018-07-07T15:37:36.619Z,22.40
2018-07-07T15:42:35.808Z,22.10
2018-07-07T15:45:05.551Z,21.90
2018-07-07T15:47:35.255Z,21.80
2018-07-07T15:57:32.541Z,21.90
2018-07-07T16:05:00.641Z,22.00
2018-07-07T16:12:29.462Z,21.50
2018-07-07T16:54:47.969Z,21.70
2018-07-07T17:07:14.881Z,21.70
2018-07-07T17:19:41.374Z,21.50
2018-07-07T17:34:37.415Z,20.50
2018-07-07T17:37:07.126Z,20.70
2018-07-07T18:09:27.761Z,20.10
2018-07-07T18:11:57.427Z,19.90
2018-07-07T18:14:27.152Z,20.00
2018-07-07T18:21:56.042Z,20.00
2018-07-07T18:24:25.716Z,19.90
2018-07-07T18:26:55.401Z,19.90
2018-07-07T18:31:54.288Z,19.90
2018-07-07T18:36:53.133Z,19.60
2018-07-07T18:39:22.739Z,19.50
2018-07-07T18:41:52.458Z,19.30
2018-07-07T18:44:22.240Z,19.10
2018-07-07T18:49:21.135Z,18.70
2018-07-07T18:54:20.033Z,18.40
2018-07-07T18:56:49.831Z,18.60
2018-07-07T18:59:19.420Z,18.70
2018-07-07T19:01:49.116Z,18.60
2018-07-07T19:11:46.547Z,18.40
2018-07-07T19:25:27.373Z,18.10
2018-07-07T19:27:57.105Z,18.10
2018-07-07T19:33:01.483Z,18.00
2018-07-07T19:35:36.574Z,18.10
2018-07-07T19:38:06.192Z,18.20
2018-07-07T19:40:35.939Z,18.00
2018-07-07T19:43:05.726Z,17.90
2018-07-07T19:58:01.406Z,17.60
2018-07-07T20:00:31.202Z,17.60
2018-07-07T20:05:30.066Z,17.70
2018-07-07T20:10:29.237Z,17.70
2018-07-07T20:20:40.608Z,17.50
2018-07-07T20:25:41.708Z,17.40
2018-07-07T20:39:19.187Z,17.50
2018-07-07T20:41:49.728Z,17.40
2018-07-07T20:46:49.014Z,17.30
2018-07-07T20:49:18.651Z,17.20
2018-07-07T20:54:18.268Z,17.20
2018-07-07T21:14:12.299Z,17.00
2018-07-07T21:21:40.311Z,17.00
2018-07-07T21:26:39.162Z,17.00
2018-07-07T21:39:06.229Z,16.80
2018-07-07T21:44:05.181Z,16.70
2018-07-07T21:46:34.892Z,16.60
2018-07-07T21:56:33.994Z,16.60
2018-07-07T21:59:09.207Z,16.50
2018-07-07T22:04:36.747Z,16.50
2018-07-07T22:09:42.785Z,16.30
2018-07-07T22:19:40.144Z,16.10
2018-07-07T22:22:10.716Z,16.00
2018-07-07T22:24:41.620Z,16.00
2018-07-07T22:29:41.709Z,16.00
2018-07-07T22:32:16.837Z,15.90
2018-07-07T22:44:47.120Z,15.70
2018-07-07T22:47:16.796Z,15.80
2018-07-07T22:49:46.426Z,15.80
2018-07-07T22:54:45.408Z,15.80
2018-07-07T23:09:40.956Z,15.50
2018-07-07T23:12:10.552Z,15.40
2018-07-07T23:29:35.391Z,15.10
2018-07-07T23:37:03.388Z,15.30
2018-07-07T23:39:32.978Z,15.20
2018-07-07T23:44:31.819Z,15.20
2018-07-07T23:47:01.435Z,15.20
2018-07-07T23:52:00.216Z,15.10
